Green Camp, Ohio
Current Conditions -  °F | °C
As of 12:53 PM on Friday 31 Oct 2014 (Local Time) from KMNN Reporting Station
Light Rain Light Rain  
Wind Chill: 40°   Ceiling: 2100
Heat Index: 44°   Visibility: 4mi
Dew Point: 37°   Wind: 8mph
Humidity: 76%   Direction: 260°W
Pressure: 29.89"   Gusts: NA
Location:  40.53°N, 83.21°W
Report Text: KMNN 311653Z AUTO 26007KT 4SM -RA BKN021 OVC028 07/03 A2989 RMK AO2 RAB02 SLP127 P0001 T00670028 TSNO
Loading
Personal Weather Stations






























Interactive Weather Map
Tropical Storm Tracking
New forecast layout! Learn more

10-Day Weather Forecast

Advertisements
Track Severe Weather on mobile